sensor_id;sensor_type;location;lat;lon;timestamp;P1;durP1;ratioP1;P2;durP2;ratioP2
7179;SDS011;3631;42.152;24.756;2022-11-21T00:00:24;18.23;;;10.63;;
7179;SDS011;3631;42.152;24.756;2022-11-21T00:02:51;16.10;;;11.43;;
7179;SDS011;3631;42.152;24.756;2022-11-21T00:05:18;16.93;;;11.70;;
7179;SDS011;3631;42.152;24.756;2022-11-21T00:07:45;13.07;;;11.00;;
7179;SDS011;3631;42.152;24.756;2022-11-21T00:10:14;15.63;;;11.00;;
7179;SDS011;3631;42.152;24.756;2022-11-21T00:12:41;18.90;;;11.23;;
7179;SDS011;3631;42.152;24.756;2022-11-21T00:15:08;18.37;;;10.87;;
7179;SDS011;3631;42.152;24.756;2022-11-21T00:17:37;14.77;;;10.50;;
7179;SDS011;3631;42.152;24.756;2022-11-21T00:20:04;12.00;;;9.73;;
7179;SDS011;3631;42.152;24.756;2022-11-21T00:22:32;21.53;;;11.13;;
7179;SDS011;3631;42.152;24.756;2022-11-21T00:24:59;14.93;;;10.97;;
7179;SDS011;3631;42.152;24.756;2022-11-21T00:27:26;11.93;;;9.53;;
7179;SDS011;3631;42.152;24.756;2022-11-21T00:29:53;14.13;;;10.27;;
7179;SDS011;3631;42.152;24.756;2022-11-21T00:32:20;12.93;;;9.47;;
7179;SDS011;3631;42.152;24.756;2022-11-21T00:34:48;17.63;;;10.50;;
7179;SDS011;3631;42.152;24.756;2022-11-21T00:37:15;15.67;;;11.07;;
7179;SDS011;3631;42.152;24.756;2022-11-21T00:39:42;19.47;;;12.00;;
7179;SDS011;3631;42.152;24.756;2022-11-21T00:42:09;17.10;;;11.60;;
7179;SDS011;3631;42.152;24.756;2022-11-21T00:44:36;17.20;;;12.57;;
7179;SDS011;3631;42.152;24.756;2022-11-21T00:47:03;19.00;;;11.90;;
7179;SDS011;3631;42.152;24.756;2022-11-21T00:49:30;18.27;;;11.83;;
7179;SDS011;3631;42.152;24.756;2022-11-21T00:51:59;17.37;;;12.27;;
7179;SDS011;3631;42.152;24.756;2022-11-21T00:54:25;18.73;;;13.20;;
7179;SDS011;3631;42.152;24.756;2022-11-21T00:56:53;16.43;;;12.60;;
7179;SDS011;3631;42.152;24.756;2022-11-21T00:59:20;20.53;;;12.10;;
7179;SDS011;3631;42.152;24.756;2022-11-21T01:01:47;19.13;;;12.00;;
7179;SDS011;3631;42.152;24.756;2022-11-21T01:04:14;17.70;;;12.30;;
7179;SDS011;3631;42.152;24.756;2022-11-21T01:06:41;16.67;;;11.80;;
7179;SDS011;3631;42.152;24.756;2022-11-21T01:09:09;22.20;;;12.37;;
7179;SDS011;3631;42.152;24.756;2022-11-21T01:11:36;15.47;;;11.63;;
7179;SDS011;3631;42.152;24.756;2022-11-21T01:14:03;14.97;;;11.43;;
7179;SDS011;3631;42.152;24.756;2022-11-21T01:16:30;18.30;;;12.23;;
7179;SDS011;3631;42.152;24.756;2022-11-21T01:18:57;17.60;;;11.03;;
7179;SDS011;3631;42.152;24.756;2022-11-21T01:21:25;16.67;;;12.00;;
7179;SDS011;3631;42.152;24.756;2022-11-21T01:23:53;20.57;;;11.60;;
7179;SDS011;3631;42.152;24.756;2022-11-21T01:26:22;20.30;;;11.77;;
7179;SDS011;3631;42.152;24.756;2022-11-21T01:28:51;20.43;;;11.73;;
7179;SDS011;3631;42.152;24.756;2022-11-21T01:31:19;16.60;;;12.83;;
7179;SDS011;3631;42.152;24.756;2022-11-21T01:33:47;14.80;;;11.73;;
7179;SDS011;3631;42.152;24.756;2022-11-21T01:36:15;20.67;;;12.00;;
7179;SDS011;3631;42.152;24.756;2022-11-21T01:38:45;18.43;;;12.00;;
7179;SDS011;3631;42.152;24.756;2022-11-21T01:41:14;19.03;;;11.57;;
7179;SDS011;3631;42.152;24.756;2022-11-21T01:43:44;18.90;;;11.93;;
7179;SDS011;3631;42.152;24.756;2022-11-21T01:46:12;13.83;;;10.63;;
7179;SDS011;3631;42.152;24.756;2022-11-21T01:48:42;14.60;;;11.27;;
7179;SDS011;3631;42.152;24.756;2022-11-21T01:51:14;18.67;;;10.60;;
7179;SDS011;3631;42.152;24.756;2022-11-21T01:53:45;16.57;;;11.07;;
7179;SDS011;3631;42.152;24.756;2022-11-21T01:56:17;13.13;;;11.03;;
7179;SDS011;3631;42.152;24.756;2022-11-21T01:58:46;14.10;;;11.07;;
7179;SDS011;3631;42.152;24.756;2022-11-21T02:01:14;14.43;;;10.97;;
7179;SDS011;3631;42.152;24.756;2022-11-21T02:03:41;12.20;;;10.30;;
7179;SDS011;3631;42.152;24.756;2022-11-21T02:06:10;15.43;;;10.73;;
7179;SDS011;3631;42.152;24.756;2022-11-21T02:08:38;17.40;;;10.57;;
7179;SDS011;3631;42.152;24.756;2022-11-21T02:11:08;14.37;;;10.87;;
7179;SDS011;3631;42.152;24.756;2022-11-21T02:13:41;15.17;;;10.20;;
7179;SDS011;3631;42.152;24.756;2022-11-21T02:16:09;14.67;;;10.33;;
7179;SDS011;3631;42.152;24.756;2022-11-21T02:18:37;21.07;;;10.00;;
7179;SDS011;3631;42.152;24.756;2022-11-21T02:21:07;14.97;;;9.47;;
7179;SDS011;3631;42.152;24.756;2022-11-21T02:23:43;11.40;;;8.33;;
7179;SDS011;3631;42.152;24.756;2022-11-21T02:26:17;14.10;;;9.47;;
7179;SDS011;3631;42.152;24.756;2022-11-21T02:28:44;10.27;;;9.10;;
7179;SDS011;3631;42.152;24.756;2022-11-21T02:31:11;12.90;;;9.53;;
7179;SDS011;3631;42.152;24.756;2022-11-21T02:33:38;12.83;;;9.10;;
7179;SDS011;3631;42.152;24.756;2022-11-21T02:38:57;16.83;;;9.90;;
7179;SDS011;3631;42.152;24.756;2022-11-21T02:41:25;12.60;;;10.07;;
7179;SDS011;3631;42.152;24.756;2022-11-21T02:43:56;11.60;;;10.10;;
7179;SDS011;3631;42.152;24.756;2022-11-21T02:46:29;12.13;;;9.80;;
7179;SDS011;3631;42.152;24.756;2022-11-21T02:48:56;13.70;;;9.23;;
7179;SDS011;3631;42.152;24.756;2022-11-21T02:51:24;10.47;;;9.47;;
7179;SDS011;3631;42.152;24.756;2022-11-21T02:53:51;13.47;;;10.03;;
7179;SDS011;3631;42.152;24.756;2022-11-21T02:56:18;11.23;;;9.37;;
7179;SDS011;3631;42.152;24.756;2022-11-21T02:58:46;12.23;;;9.60;;
7179;SDS011;3631;42.152;24.756;2022-11-21T03:01:13;10.73;;;9.67;;
7179;SDS011;3631;42.152;24.756;2022-11-21T03:03:40;13.37;;;9.67;;
7179;SDS011;3631;42.152;24.756;2022-11-21T03:06:07;13.30;;;9.73;;
7179;SDS011;3631;42.152;24.756;2022-11-21T03:08:34;13.87;;;9.63;;
7179;SDS011;3631;42.152;24.756;2022-11-21T03:11:01;12.23;;;9.67;;
7179;SDS011;3631;42.152;24.756;2022-11-21T03:13:27;12.47;;;10.00;;
7179;SDS011;3631;42.152;24.756;2022-11-21T03:15:56;17.77;;;9.90;;
7179;SDS011;3631;42.152;24.756;2022-11-21T03:18:24;11.70;;;9.37;;
7179;SDS011;3631;42.152;24.756;2022-11-21T03:20:51;12.90;;;11.60;;
7179;SDS011;3631;42.152;24.756;2022-11-21T03:23:18;16.50;;;12.00;;
7179;SDS011;3631;42.152;24.756;2022-11-21T03:25:45;14.07;;;12.57;;
7179;SDS011;3631;42.152;24.756;2022-11-21T03:28:12;19.63;;;13.70;;
7179;SDS011;3631;42.152;24.756;2022-11-21T03:30:39;21.07;;;15.50;;
7179;SDS011;3631;42.152;24.756;2022-11-21T03:33:07;21.53;;;14.57;;
7179;SDS011;3631;42.152;24.756;2022-11-21T03:35:34;21.97;;;15.80;;
7179;SDS011;3631;42.152;24.756;2022-11-21T03:38:01;18.93;;;14.53;;
7179;SDS011;3631;42.152;24.756;2022-11-21T03:40:28;22.33;;;15.20;;
7179;SDS011;3631;42.152;24.756;2022-11-21T03:42:55;21.60;;;14.67;;
7179;SDS011;3631;42.152;24.756;2022-11-21T03:45:22;17.17;;;14.80;;
7179;SDS011;3631;42.152;24.756;2022-11-21T03:47:48;18.83;;;14.20;;
7179;SDS011;3631;42.152;24.756;2022-11-21T03:50:17;24.20;;;14.70;;
7179;SDS011;3631;42.152;24.756;2022-11-21T03:52:45;18.80;;;15.67;;
7179;SDS011;3631;42.152;24.756;2022-11-21T03:55:12;24.60;;;14.80;;
7179;SDS011;3631;42.152;24.756;2022-11-21T03:57:39;18.00;;;14.87;;
7179;SDS011;3631;42.152;24.756;2022-11-21T04:00:06;23.80;;;14.97;;
7179;SDS011;3631;42.152;24.756;2022-11-21T04:02:34;25.07;;;14.63;;
7179;SDS011;3631;42.152;24.756;2022-11-21T04:05:01;19.87;;;14.20;;
7179;SDS011;3631;42.152;24.756;2022-11-21T04:07:29;23.37;;;16.07;;
7179;SDS011;3631;42.152;24.756;2022-11-21T04:09:56;26.23;;;15.20;;
7179;SDS011;3631;42.152;24.756;2022-11-21T04:12:23;21.87;;;15.90;;
7179;SDS011;3631;42.152;24.756;2022-11-21T04:14:50;26.00;;;16.30;;
7179;SDS011;3631;42.152;24.756;2022-11-21T04:17:17;25.30;;;16.07;;
7179;SDS011;3631;42.152;24.756;2022-11-21T04:19:44;20.90;;;15.37;;
7179;SDS011;3631;42.152;24.756;2022-11-21T04:22:10;23.33;;;16.03;;
7179;SDS011;3631;42.152;24.756;2022-11-21T04:24:39;21.80;;;15.47;;
7179;SDS011;3631;42.152;24.756;2022-11-21T04:27:06;26.70;;;16.97;;
7179;SDS011;3631;42.152;24.756;2022-11-21T04:29:32;41.90;;;27.80;;
7179;SDS011;3631;42.152;24.756;2022-11-21T04:31:59;34.97;;;25.60;;
7179;SDS011;3631;42.152;24.756;2022-11-21T04:34:26;62.67;;;44.93;;
7179;SDS011;3631;42.152;24.756;2022-11-21T04:36:53;33.73;;;25.67;;
7179;SDS011;3631;42.152;24.756;2022-11-21T04:39:20;45.00;;;32.33;;
7179;SDS011;3631;42.152;24.756;2022-11-21T04:41:48;44.47;;;29.40;;
7179;SDS011;3631;42.152;24.756;2022-11-21T04:44:15;38.20;;;27.00;;
7179;SDS011;3631;42.152;24.756;2022-11-21T04:46:42;48.20;;;37.07;;
7179;SDS011;3631;42.152;24.756;2022-11-21T04:49:09;38.67;;;31.97;;
7179;SDS011;3631;42.152;24.756;2022-11-21T04:51:36;35.97;;;24.63;;
7179;SDS011;3631;42.152;24.756;2022-11-21T04:54:03;27.90;;;19.20;;
7179;SDS011;3631;42.152;24.756;2022-11-21T04:56:30;28.03;;;19.57;;
7179;SDS011;3631;42.152;24.756;2022-11-21T04:58:58;29.43;;;19.23;;
7179;SDS011;3631;42.152;24.756;2022-11-21T05:01:25;25.47;;;18.73;;
7179;SDS011;3631;42.152;24.756;2022-11-21T05:03:52;30.20;;;19.30;;
7179;SDS011;3631;42.152;24.756;2022-11-21T05:06:19;31.87;;;24.70;;
7179;SDS011;3631;42.152;24.756;2022-11-21T05:08:46;34.67;;;21.37;;
7179;SDS011;3631;42.152;24.756;2022-11-21T05:11:13;30.27;;;21.93;;
7179;SDS011;3631;42.152;24.756;2022-11-21T05:14:01;41.80;;;21.60;;
7179;SDS011;3631;42.152;24.756;2022-11-21T05:16:28;29.40;;;21.63;;
7179;SDS011;3631;42.152;24.756;2022-11-21T05:18:55;42.73;;;29.43;;
7179;SDS011;3631;42.152;24.756;2022-11-21T05:21:22;48.33;;;32.67;;
7179;SDS011;3631;42.152;24.756;2022-11-21T05:23:49;38.07;;;25.10;;
7179;SDS011;3631;42.152;24.756;2022-11-21T05:26:15;46.53;;;29.73;;
7179;SDS011;3631;42.152;24.756;2022-11-21T05:28:42;34.13;;;23.37;;
7179;SDS011;3631;42.152;24.756;2022-11-21T05:31:13;36.30;;;24.37;;
7179;SDS011;3631;42.152;24.756;2022-11-21T05:33:40;26.73;;;19.80;;
7179;SDS011;3631;42.152;24.756;2022-11-21T05:36:06;24.03;;;13.90;;
7179;SDS011;3631;42.152;24.756;2022-11-21T05:38:33;19.67;;;13.60;;
7179;SDS011;3631;42.152;24.756;2022-11-21T05:41:00;17.13;;;11.73;;
7179;SDS011;3631;42.152;24.756;2022-11-21T05:43:27;16.27;;;8.93;;
7179;SDS011;3631;42.152;24.756;2022-11-21T05:46:13;11.60;;;8.70;;
7179;SDS011;3631;42.152;24.756;2022-11-21T05:48:41;17.90;;;12.47;;
7179;SDS011;3631;42.152;24.756;2022-11-21T05:51:08;22.20;;;12.50;;
7179;SDS011;3631;42.152;24.756;2022-11-21T05:53:35;19.43;;;13.33;;
7179;SDS011;3631;42.152;24.756;2022-11-21T05:56:03;19.80;;;14.37;;
7179;SDS011;3631;42.152;24.756;2022-11-21T05:58:31;17.10;;;13.10;;
7179;SDS011;3631;42.152;24.756;2022-11-21T06:00:59;24.33;;;15.03;;
7179;SDS011;3631;42.152;24.756;2022-11-21T06:03:28;29.10;;;17.67;;
7179;SDS011;3631;42.152;24.756;2022-11-21T06:06:00;26.83;;;18.13;;
7179;SDS011;3631;42.152;24.756;2022-11-21T06:08:29;27.70;;;20.50;;
7179;SDS011;3631;42.152;24.756;2022-11-21T06:10:57;29.57;;;19.37;;
7179;SDS011;3631;42.152;24.756;2022-11-21T06:13:24;30.20;;;20.13;;
7179;SDS011;3631;42.152;24.756;2022-11-21T06:15:52;31.43;;;20.53;;
7179;SDS011;3631;42.152;24.756;2022-11-21T06:18:21;33.63;;;20.60;;
7179;SDS011;3631;42.152;24.756;2022-11-21T06:20:49;35.93;;;23.63;;
7179;SDS011;3631;42.152;24.756;2022-11-21T06:23:16;30.83;;;22.30;;
7179;SDS011;3631;42.152;24.756;2022-11-21T06:25:44;31.77;;;21.63;;
7179;SDS011;3631;42.152;24.756;2022-11-21T06:28:11;31.07;;;21.60;;
7179;SDS011;3631;42.152;24.756;2022-11-21T06:30:38;34.13;;;21.87;;
7179;SDS011;3631;42.152;24.756;2022-11-21T06:33:05;27.53;;;20.97;;
7179;SDS011;3631;42.152;24.756;2022-11-21T06:35:35;30.77;;;20.37;;
7179;SDS011;3631;42.152;24.756;2022-11-21T06:38:05;32.17;;;20.13;;
7179;SDS011;3631;42.152;24.756;2022-11-21T06:40:33;27.30;;;19.63;;
7179;SDS011;3631;42.152;24.756;2022-11-21T06:42:59;29.43;;;18.53;;
7179;SDS011;3631;42.152;24.756;2022-11-21T06:45:26;32.33;;;18.00;;
7179;SDS011;3631;42.152;24.756;2022-11-21T06:47:53;25.87;;;17.50;;
7179;SDS011;3631;42.152;24.756;2022-11-21T06:50:20;24.87;;;16.63;;
7179;SDS011;3631;42.152;24.756;2022-11-21T06:52:48;24.77;;;15.93;;
7179;SDS011;3631;42.152;24.756;2022-11-21T06:55:16;24.43;;;14.23;;
7179;SDS011;3631;42.152;24.756;2022-11-21T06:57:43;22.53;;;14.00;;
7179;SDS011;3631;42.152;24.756;2022-11-21T07:00:10;23.27;;;13.10;;
7179;SDS011;3631;42.152;24.756;2022-11-21T07:02:38;20.60;;;12.83;;
7179;SDS011;3631;42.152;24.756;2022-11-21T07:05:05;15.13;;;11.30;;
7179;SDS011;3631;42.152;24.756;2022-11-21T07:07:32;16.53;;;10.57;;
7179;SDS011;3631;42.152;24.756;2022-11-21T07:09:59;14.67;;;9.40;;
7179;SDS011;3631;42.152;24.756;2022-11-21T07:12:27;16.10;;;9.90;;
7179;SDS011;3631;42.152;24.756;2022-11-21T07:15:11;16.87;;;10.13;;
7179;SDS011;3631;42.152;24.756;2022-11-21T07:17:39;18.53;;;10.50;;
7179;SDS011;3631;42.152;24.756;2022-11-21T07:20:06;15.00;;;10.40;;
7179;SDS011;3631;42.152;24.756;2022-11-21T07:22:34;16.77;;;12.40;;
7179;SDS011;3631;42.152;24.756;2022-11-21T07:25:01;19.73;;;11.70;;
7179;SDS011;3631;42.152;24.756;2022-11-21T07:27:29;24.20;;;13.60;;
7179;SDS011;3631;42.152;24.756;2022-11-21T07:29:56;18.53;;;12.87;;
7179;SDS011;3631;42.152;24.756;2022-11-21T07:32:23;23.67;;;15.60;;
7179;SDS011;3631;42.152;24.756;2022-11-21T07:34:51;15.60;;;11.33;;
7179;SDS011;3631;42.152;24.756;2022-11-21T07:37:17;16.03;;;11.73;;
7179;SDS011;3631;42.152;24.756;2022-11-21T07:39:44;22.47;;;11.47;;
7179;SDS011;3631;42.152;24.756;2022-11-21T07:42:11;14.23;;;10.63;;
7179;SDS011;3631;42.152;24.756;2022-11-21T07:44:40;12.67;;;9.87;;
7179;SDS011;3631;42.152;24.756;2022-11-21T07:47:06;20.67;;;12.93;;
7179;SDS011;3631;42.152;24.756;2022-11-21T07:49:33;20.10;;;10.97;;
7179;SDS011;3631;42.152;24.756;2022-11-21T07:52:00;14.27;;;9.03;;
7179;SDS011;3631;42.152;24.756;2022-11-21T07:54:27;16.80;;;10.07;;
7179;SDS011;3631;42.152;24.756;2022-11-21T07:56:54;13.47;;;9.13;;
7179;SDS011;3631;42.152;24.756;2022-11-21T07:59:21;17.20;;;9.80;;
7179;SDS011;3631;42.152;24.756;2022-11-21T08:01:50;18.10;;;10.03;;
7179;SDS011;3631;42.152;24.756;2022-11-21T08:04:17;20.80;;;13.43;;
7179;SDS011;3631;42.152;24.756;2022-11-21T08:06:44;19.57;;;13.00;;
7179;SDS011;3631;42.152;24.756;2022-11-21T08:09:11;22.13;;;12.73;;
7179;SDS011;3631;42.152;24.756;2022-11-21T08:11:38;26.07;;;15.67;;
7179;SDS011;3631;42.152;24.756;2022-11-21T08:14:05;22.90;;;15.13;;
7179;SDS011;3631;42.152;24.756;2022-11-21T08:16:32;22.83;;;15.00;;
7179;SDS011;3631;42.152;24.756;2022-11-21T08:19:00;24.00;;;14.73;;
7179;SDS011;3631;42.152;24.756;2022-11-21T08:21:27;28.00;;;18.50;;
7179;SDS011;3631;42.152;24.756;2022-11-21T08:23:55;28.13;;;17.77;;
7179;SDS011;3631;42.152;24.756;2022-11-21T08:26:22;20.87;;;16.97;;
7179;SDS011;3631;42.152;24.756;2022-11-21T08:28:49;25.93;;;18.50;;
7179;SDS011;3631;42.152;24.756;2022-11-21T08:31:16;31.40;;;18.90;;
7179;SDS011;3631;42.152;24.756;2022-11-21T08:33:43;21.37;;;17.97;;
7179;SDS011;3631;42.152;24.756;2022-11-21T08:36:12;24.87;;;17.13;;
7179;SDS011;3631;42.152;24.756;2022-11-21T08:38:39;29.67;;;20.13;;
7179;SDS011;3631;42.152;24.756;2022-11-21T08:41:06;23.37;;;13.63;;
7179;SDS011;3631;42.152;24.756;2022-11-21T08:43:50;49.07;;;28.60;;
7179;SDS011;3631;42.152;24.756;2022-11-21T08:46:17;39.87;;;26.60;;
7179;SDS011;3631;42.152;24.756;2022-11-21T08:48:44;32.20;;;20.63;;
7179;SDS011;3631;42.152;24.756;2022-11-21T08:51:12;35.60;;;17.58;;
7179;SDS011;3631;42.152;24.756;2022-11-21T08:53:39;27.80;;;20.70;;
7179;SDS011;3631;42.152;24.756;2022-11-21T08:56:06;44.33;;;24.08;;
7179;SDS011;3631;42.152;24.756;2022-11-21T08:58:33;19.77;;;11.60;;
7179;SDS011;3631;42.152;24.756;2022-11-21T09:00:59;17.98;;;11.40;;
7179;SDS011;3631;42.152;24.756;2022-11-21T09:03:26;26.05;;;16.92;;
7179;SDS011;3631;42.152;24.756;2022-11-21T09:05:54;19.30;;;8.95;;
7179;SDS011;3631;42.152;24.756;2022-11-21T09:08:23;19.85;;;12.35;;
7179;SDS011;3631;42.152;24.756;2022-11-21T09:10:50;32.92;;;21.13;;
7179;SDS011;3631;42.152;24.756;2022-11-21T09:13:17;17.58;;;13.95;;
7179;SDS011;3631;42.152;24.756;2022-11-21T09:15:44;21.42;;;14.85;;
7179;SDS011;3631;42.152;24.756;2022-11-21T09:18:28;10.98;;;6.93;;
7179;SDS011;3631;42.152;24.756;2022-11-21T09:20:55;15.40;;;8.52;;
7179;SDS011;3631;42.152;24.756;2022-11-21T09:23:23;6.45;;;4.70;;
7179;SDS011;3631;42.152;24.756;2022-11-21T09:25:50;7.78;;;2.92;;
7179;SDS011;3631;42.152;24.756;2022-11-21T09:28:17;10.10;;;8.05;;
7179;SDS011;3631;42.152;24.756;2022-11-21T09:30:44;4.40;;;3.50;;
7179;SDS011;3631;42.152;24.756;2022-11-21T09:33:11;7.27;;;5.63;;
7179;SDS011;3631;42.152;24.756;2022-11-21T09:35:40;7.38;;;4.45;;
7179;SDS011;3631;42.152;24.756;2022-11-21T09:38:08;6.35;;;3.00;;
7179;SDS011;3631;42.152;24.756;2022-11-21T09:40:36;6.93;;;5.47;;
7179;SDS011;3631;42.152;24.756;2022-11-21T09:43:25;5.15;;;4.38;;
7179;SDS011;3631;42.152;24.756;2022-11-21T09:46:06;4.03;;;2.30;;
7179;SDS011;3631;42.152;24.756;2022-11-21T09:48:38;8.90;;;6.45;;
7179;SDS011;3631;42.152;24.756;2022-11-21T09:51:12;2.40;;;2.20;;
7179;SDS011;3631;42.152;24.756;2022-11-21T09:53:45;12.13;;;7.57;;
7179;SDS011;3631;42.152;24.756;2022-11-21T09:56:19;6.60;;;1.95;;
7179;SDS011;3631;42.152;24.756;2022-11-21T09:58:50;4.72;;;1.63;;
7179;SDS011;3631;42.152;24.756;2022-11-21T10:01:28;4.72;;;1.83;;
7179;SDS011;3631;42.152;24.756;2022-11-21T10:03:56;4.05;;;1.80;;
7179;SDS011;3631;42.152;24.756;2022-11-21T10:06:27;3.88;;;1.77;;
7179;SDS011;3631;42.152;24.756;2022-11-21T10:08:59;3.50;;;2.00;;
7179;SDS011;3631;42.152;24.756;2022-11-21T10:11:36;1.90;;;1.65;;
7179;SDS011;3631;42.152;24.756;2022-11-21T10:14:24;4.00;;;1.65;;
7179;SDS011;3631;42.152;24.756;2022-11-21T10:17:05;5.38;;;4.20;;
7179;SDS011;3631;42.152;24.756;2022-11-21T10:19:46;4.40;;;2.45;;
7179;SDS011;3631;42.152;24.756;2022-11-21T10:22:37;3.15;;;2.03;;
7179;SDS011;3631;42.152;24.756;2022-11-21T10:25:14;2.70;;;1.80;;
7179;SDS011;3631;42.152;24.756;2022-11-21T10:27:47;4.05;;;2.30;;
7179;SDS011;3631;42.152;24.756;2022-11-21T10:30:19;1.90;;;1.80;;
7179;SDS011;3631;42.152;24.756;2022-11-21T10:32:47;3.42;;;1.83;;
7179;SDS011;3631;42.152;24.756;2022-11-21T10:35:19;2.88;;;1.80;;
7179;SDS011;3631;42.152;24.756;2022-11-21T10:37:48;7.00;;;1.98;;
7179;SDS011;3631;42.152;24.756;2022-11-21T10:40:29;5.03;;;2.10;;
7179;SDS011;3631;42.152;24.756;2022-11-21T10:43:05;3.08;;;2.00;;
7179;SDS011;3631;42.152;24.756;2022-11-21T10:45:52;4.38;;;1.80;;
7179;SDS011;3631;42.152;24.756;2022-11-21T10:48:20;2.72;;;1.70;;
7179;SDS011;3631;42.152;24.756;2022-11-21T10:50:54;7.90;;;1.90;;
7179;SDS011;3631;42.152;24.756;2022-11-21T10:53:33;11.32;;;2.70;;
7179;SDS011;3631;42.152;24.756;2022-11-21T10:56:18;1.75;;;1.65;;
7179;SDS011;3631;42.152;24.756;2022-11-21T10:58:48;4.50;;;2.63;;
7179;SDS011;3631;42.152;24.756;2022-11-21T11:01:21;8.77;;;3.80;;
7179;SDS011;3631;42.152;24.756;2022-11-21T11:04:06;2.92;;;1.90;;
7179;SDS011;3631;42.152;24.756;2022-11-21T11:06:43;2.60;;;2.40;;
7179;SDS011;3631;42.152;24.756;2022-11-21T11:09:21;4.22;;;2.28;;
7179;SDS011;3631;42.152;24.756;2022-11-21T11:12:15;6.95;;;2.95;;
7179;SDS011;3631;42.152;24.756;2022-11-21T11:14:50;6.05;;;2.33;;
7179;SDS011;3631;42.152;24.756;2022-11-21T11:17:26;3.10;;;2.03;;
7179;SDS011;3631;42.152;24.756;2022-11-21T11:19:58;4.95;;;3.03;;
7179;SDS011;3631;42.152;24.756;2022-11-21T11:22:27;3.03;;;2.50;;
7179;SDS011;3631;42.152;24.756;2022-11-21T11:24:55;4.60;;;3.75;;
7179;SDS011;3631;42.152;24.756;2022-11-21T11:27:25;7.43;;;2.28;;
7179;SDS011;3631;42.152;24.756;2022-11-21T11:29:54;2.00;;;1.90;;
7179;SDS011;3631;42.152;24.756;2022-11-21T11:32:21;1.70;;;1.60;;
7179;SDS011;3631;42.152;24.756;2022-11-21T11:34:52;3.88;;;1.48;;
7179;SDS011;3631;42.152;24.756;2022-11-21T11:37:29;3.90;;;1.92;;
7179;SDS011;3631;42.152;24.756;2022-11-21T11:40:03;3.70;;;1.90;;
7179;SDS011;3631;42.152;24.756;2022-11-21T11:42:47;2.40;;;2.20;;
7179;SDS011;3631;42.152;24.756;2022-11-21T11:45:55;1.98;;;1.45;;
7179;SDS011;3631;42.152;24.756;2022-11-21T11:48:48;8.23;;;2.35;;
7179;SDS011;3631;42.152;24.756;2022-11-21T11:51:20;1.80;;;1.70;;
7179;SDS011;3631;42.152;24.756;2022-11-21T11:53:51;1.65;;;1.42;;
7179;SDS011;3631;42.152;24.756;2022-11-21T11:56:23;3.38;;;1.85;;
7179;SDS011;3631;42.152;24.756;2022-11-21T11:58:52;2.42;;;1.95;;
7179;SDS011;3631;42.152;24.756;2022-11-21T12:01:29;1.98;;;1.40;;
7179;SDS011;3631;42.152;24.756;2022-11-21T12:04:01;3.05;;;1.45;;
7179;SDS011;3631;42.152;24.756;2022-11-21T12:06:32;1.88;;;1.77;;
7179;SDS011;3631;42.152;24.756;2022-11-21T12:09:04;1.50;;;1.40;;
7179;SDS011;3631;42.152;24.756;2022-11-21T12:11:40;2.47;;;2.10;;
7179;SDS011;3631;42.152;24.756;2022-11-21T12:17:40;1.52;;;1.42;;
7179;SDS011;3631;42.152;24.756;2022-11-21T12:20:13;3.37;;;1.50;;
7179;SDS011;3631;42.152;24.756;2022-11-21T12:22:44;3.83;;;1.90;;
7179;SDS011;3631;42.152;24.756;2022-11-21T12:25:14;2.17;;;1.40;;
7179;SDS011;3631;42.152;24.756;2022-11-21T12:27:43;1.40;;;1.30;;
7179;SDS011;3631;42.152;24.756;2022-11-21T12:30:22;1.30;;;1.20;;
7179;SDS011;3631;42.152;24.756;2022-11-21T12:33:00;1.40;;;1.30;;
7179;SDS011;3631;42.152;24.756;2022-11-21T12:35:46;2.47;;;1.60;;
7179;SDS011;3631;42.152;24.756;2022-11-21T12:38:29;1.43;;;1.33;;
7179;SDS011;3631;42.152;24.756;2022-11-21T12:41:10;4.03;;;1.40;;
7179;SDS011;3631;42.152;24.756;2022-11-21T12:44:03;1.63;;;1.53;;
7179;SDS011;3631;42.152;24.756;2022-11-21T12:46:42;2.10;;;1.40;;
7179;SDS011;3631;42.152;24.756;2022-11-21T12:49:23;2.13;;;1.50;;
7179;SDS011;3631;42.152;24.756;2022-11-21T12:52:13;1.27;;;1.17;;
7179;SDS011;3631;42.152;24.756;2022-11-21T12:55:13;1.30;;;1.20;;
7179;SDS011;3631;42.152;24.756;2022-11-21T13:00:54;2.93;;;2.17;;
7179;SDS011;3631;42.152;24.756;2022-11-21T13:03:48;5.70;;;1.70;;
7179;SDS011;3631;42.152;24.756;2022-11-21T13:06:22;8.50;;;2.13;;
7179;SDS011;3631;42.152;24.756;2022-11-21T13:08:51;5.33;;;2.10;;
7179;SDS011;3631;42.152;24.756;2022-11-21T13:11:24;4.17;;;2.10;;
7179;SDS011;3631;42.152;24.756;2022-11-21T13:14:19;3.63;;;1.87;;
7179;SDS011;3631;42.152;24.756;2022-11-21T13:16:53;1.50;;;1.40;;
7179;SDS011;3631;42.152;24.756;2022-11-21T13:19:32;2.90;;;1.33;;
7179;SDS011;3631;42.152;24.756;2022-11-21T13:22:04;4.10;;;1.20;;
7179;SDS011;3631;42.152;24.756;2022-11-21T13:24:56;1.40;;;1.30;;
7179;SDS011;3631;42.152;24.756;2022-11-21T13:27:27;1.43;;;1.30;;
7179;SDS011;3631;42.152;24.756;2022-11-21T13:32:46;1.27;;;1.17;;
7179;SDS011;3631;42.152;24.756;2022-11-21T13:38:31;1.80;;;1.37;;
7179;SDS011;3631;42.152;24.756;2022-11-21T13:44:38;2.57;;;1.20;;
7179;SDS011;3631;42.152;24.756;2022-11-21T13:47:08;1.33;;;1.23;;
7179;SDS011;3631;42.152;24.756;2022-11-21T13:49:38;1.90;;;1.63;;
7179;SDS011;3631;42.152;24.756;2022-11-21T13:52:18;1.43;;;1.20;;
7179;SDS011;3631;42.152;24.756;2022-11-21T13:55:08;1.33;;;1.23;;
7179;SDS011;3631;42.152;24.756;2022-11-21T13:58:00;1.90;;;1.40;;
7179;SDS011;3631;42.152;24.756;2022-11-21T14:00:43;2.23;;;1.50;;
7179;SDS011;3631;42.152;24.756;2022-11-21T14:06:21;2.30;;;2.10;;
7179;SDS011;3631;42.152;24.756;2022-11-21T14:09:21;2.87;;;2.33;;
7179;SDS011;3631;42.152;24.756;2022-11-21T14:11:52;2.67;;;2.47;;
7179;SDS011;3631;42.152;24.756;2022-11-21T14:14:27;4.23;;;2.87;;
7179;SDS011;3631;42.152;24.756;2022-11-21T14:17:02;3.50;;;2.70;;
7179;SDS011;3631;42.152;24.756;2022-11-21T14:19:45;5.63;;;2.13;;
7179;SDS011;3631;42.152;24.756;2022-11-21T14:22:14;2.63;;;2.17;;
7179;SDS011;3631;42.152;24.756;2022-11-21T14:24:50;4.57;;;3.20;;
7179;SDS011;3631;42.152;24.756;2022-11-21T14:27:21;3.07;;;2.77;;
7179;SDS011;3631;42.152;24.756;2022-11-21T14:29:52;1.80;;;1.70;;
7179;SDS011;3631;42.152;24.756;2022-11-21T14:32:25;1.57;;;1.47;;
7179;SDS011;3631;42.152;24.756;2022-11-21T14:35:05;3.00;;;1.73;;
7179;SDS011;3631;42.152;24.756;2022-11-21T14:37:34;2.23;;;2.03;;
7179;SDS011;3631;42.152;24.756;2022-11-21T14:40:02;2.47;;;1.80;;
7179;SDS011;3631;42.152;24.756;2022-11-21T14:42:33;1.90;;;1.80;;
7179;SDS011;3631;42.152;24.756;2022-11-21T14:45:04;3.13;;;2.27;;
7179;SDS011;3631;42.152;24.756;2022-11-21T14:47:34;2.03;;;1.90;;
7179;SDS011;3631;42.152;24.756;2022-11-21T14:50:19;2.00;;;1.90;;
7179;SDS011;3631;42.152;24.756;2022-11-21T14:52:48;2.03;;;1.60;;
7179;SDS011;3631;42.152;24.756;2022-11-21T14:55:22;1.80;;;1.70;;
7179;SDS011;3631;42.152;24.756;2022-11-21T14:57:51;1.63;;;1.53;;
7179;SDS011;3631;42.152;24.756;2022-11-21T15:00:20;1.57;;;1.50;;
7179;SDS011;3631;42.152;24.756;2022-11-21T15:02:51;1.90;;;1.80;;
7179;SDS011;3631;42.152;24.756;2022-11-21T15:05:20;1.53;;;1.43;;
7179;SDS011;3631;42.152;24.756;2022-11-21T15:07:54;5.60;;;1.80;;
7179;SDS011;3631;42.152;24.756;2022-11-21T15:10:28;3.93;;;1.80;;
7179;SDS011;3631;42.152;24.756;2022-11-21T15:12:58;4.10;;;2.37;;
7179;SDS011;3631;42.152;24.756;2022-11-21T15:15:31;3.23;;;2.10;;
7179;SDS011;3631;42.152;24.756;2022-11-21T15:18:03;5.03;;;2.23;;
7179;SDS011;3631;42.152;24.756;2022-11-21T15:20:32;2.40;;;2.20;;
7179;SDS011;3631;42.152;24.756;2022-11-21T15:23:00;2.27;;;2.17;;
7179;SDS011;3631;42.152;24.756;2022-11-21T15:25:28;2.20;;;2.10;;
7179;SDS011;3631;42.152;24.756;2022-11-21T15:28:06;2.80;;;2.60;;